createdAt,value
2018-11-23T00:01:01.422Z,52.70
2018-11-23T00:03:28.430Z,52.70
2018-11-23T00:05:54.727Z,52.50
2018-11-23T00:08:20.996Z,52.70
2018-11-23T00:10:47.276Z,53.20
2018-11-23T00:13:13.517Z,52.80
2018-11-23T00:15:39.847Z,52.90
2018-11-23T00:18:06.112Z,52.60
2018-11-23T00:20:33.116Z,52.60
2018-11-23T00:22:59.358Z,52.30
2018-11-23T00:25:25.675Z,52.20
2018-11-23T00:27:51.964Z,52.50
2018-11-23T00:30:18.976Z,52.60
2018-11-23T00:32:45.227Z,52.50
2018-11-23T00:35:11.475Z,52.70
2018-11-23T00:37:37.721Z,52.80
2018-11-23T00:40:04.187Z,52.80
2018-11-23T00:42:30.419Z,52.50
2018-11-23T00:44:56.804Z,52.80
2018-11-23T00:47:23.336Z,51.90
2018-11-23T00:49:49.714Z,52.20
2018-11-23T00:52:15.929Z,52.90
2018-11-23T00:54:42.285Z,53.10
2018-11-23T00:57:08.482Z,53.60
2018-11-23T00:59:34.770Z,53.40
2018-11-23T01:02:01.799Z,53.00
2018-11-23T01:04:28.073Z,53.00
2018-11-23T01:06:54.340Z,52.70
2018-11-23T01:09:20.600Z,52.20
2018-11-23T01:11:47.576Z,53.40
2018-11-23T01:14:13.805Z,53.30
2018-11-23T01:16:40.053Z,53.80
2018-11-23T01:19:06.412Z,54.10
2018-11-23T01:21:32.690Z,53.80
2018-11-23T01:23:59.287Z,53.70
2018-11-23T01:26:26.334Z,53.20
2018-11-23T01:28:53.459Z,53.80
2018-11-23T01:31:19.725Z,53.80
2018-11-23T01:33:46.018Z,53.50
2018-11-23T01:36:12.252Z,53.30
2018-11-23T01:38:38.494Z,53.60
2018-11-23T01:41:05.489Z,53.60
2018-11-23T01:43:31.712Z,53.50
2018-11-23T01:45:58.290Z,53.60
2018-11-23T01:48:25.324Z,53.50
2018-11-23T01:50:51.544Z,53.40
2018-11-23T01:53:17.820Z,53.90
2018-11-23T01:55:44.035Z,53.70
2018-11-23T01:58:10.988Z,53.30
2018-11-23T02:00:37.992Z,52.80
2018-11-23T02:03:04.263Z,52.70
2018-11-23T02:05:30.503Z,53.50
2018-11-23T02:07:57.013Z,53.00
2018-11-23T02:10:24.043Z,53.90
2018-11-23T02:12:50.287Z,53.20
2018-11-23T02:15:17.294Z,53.80
2018-11-23T02:17:43.527Z,53.60
2018-11-23T02:20:09.786Z,53.90
2018-11-23T02:22:36.783Z,52.60
2018-11-23T02:25:03.031Z,52.40
2018-11-23T02:27:29.292Z,52.60
2018-11-23T02:29:56.355Z,52.50
2018-11-23T02:32:22.579Z,52.50
2018-11-23T02:34:49.549Z,52.60
2018-11-23T02:37:15.787Z,52.60
2018-11-23T02:39:41.996Z,52.20
2018-11-23T02:42:08.303Z,51.60
2018-11-23T02:44:35.286Z,52.50
2018-11-23T02:47:01.572Z,52.50
2018-11-23T02:49:27.827Z,52.20
2018-11-23T02:51:54.119Z,52.60
2018-11-23T02:54:20.322Z,52.90
2018-11-23T02:56:46.575Z,53.30
2018-11-23T02:59:13.599Z,53.40
2018-11-23T03:01:40.179Z,53.20
2018-11-23T03:04:06.474Z,53.80
2018-11-23T03:06:32.700Z,54.40
2018-11-23T03:08:58.947Z,54.60
2018-11-23T03:11:25.919Z,53.90
2018-11-23T03:13:52.133Z,53.80
2018-11-23T03:16:18.647Z,52.50
2018-11-23T03:18:45.607Z,53.60
2018-11-23T03:21:12.575Z,53.90
2018-11-23T03:23:39.059Z,53.90
2018-11-23T03:26:06.027Z,52.70
2018-11-23T03:28:32.328Z,53.30
2018-11-23T03:30:58.577Z,53.10
2018-11-23T03:33:25.547Z,54.30
2018-11-23T03:35:51.771Z,54.30
2018-11-23T03:38:18.263Z,54.60
2018-11-23T03:40:44.470Z,54.70
2018-11-23T03:43:10.722Z,54.50
2018-11-23T03:45:36.995Z,54.20
2018-11-23T03:48:03.239Z,54.40
2018-11-23T03:50:29.589Z,54.50
2018-11-23T03:52:56.147Z,54.40
2018-11-23T03:55:22.372Z,54.70
2018-11-23T03:57:49.336Z,55.00
2018-11-23T04:00:17.400Z,55.20
2018-11-23T04:02:42.613Z,55.20
2018-11-23T04:05:16.645Z,55.50
2018-11-23T04:07:42.907Z,55.70
2018-11-23T04:10:09.170Z,55.40
2018-11-23T04:12:35.431Z,55.30
2018-11-23T04:15:01.942Z,55.30
2018-11-23T04:17:28.159Z,55.20
2018-11-23T04:19:54.479Z,55.00
2018-11-23T04:22:21.462Z,54.80
2018-11-23T04:24:47.704Z,54.70
2018-11-23T04:27:13.939Z,54.90
2018-11-23T04:29:40.243Z,54.60
2018-11-23T04:32:06.470Z,54.50
2018-11-23T04:34:32.700Z,54.60
2018-11-23T04:36:58.919Z,53.70
2018-11-23T04:39:25.206Z,54.50
2018-11-23T04:41:51.487Z,54.70
2018-11-23T04:44:17.870Z,54.80
2018-11-23T04:46:44.095Z,54.70
2018-11-23T04:49:10.318Z,54.70
2018-11-23T04:51:36.816Z,54.60
2018-11-23T04:54:03.151Z,54.10
2018-11-23T04:56:29.473Z,53.70
2018-11-23T04:58:55.727Z,53.50
2018-11-23T05:01:21.967Z,53.20
2018-11-23T05:03:48.947Z,54.80
2018-11-23T05:06:15.560Z,53.90
2018-11-23T05:08:42.523Z,54.90
2018-11-23T05:11:09.490Z,54.50
2018-11-23T05:13:35.787Z,54.50
2018-11-23T05:16:02.037Z,54.80
2018-11-23T05:18:28.294Z,55.00
2018-11-23T05:20:54.567Z,54.60
2018-11-23T05:23:21.559Z,54.30
2018-11-23T05:25:47.785Z,54.50
2018-11-23T05:28:14.896Z,54.40
2018-11-23T05:30:41.127Z,54.30
2018-11-23T05:33:07.447Z,54.70
2018-11-23T05:35:33.704Z,54.20
2018-11-23T05:37:59.934Z,54.20
2018-11-23T05:40:26.301Z,54.40
2018-11-23T05:42:52.558Z,54.00
2018-11-23T05:45:19.541Z,54.10
2018-11-23T05:47:45.836Z,54.00
2018-11-23T05:50:12.130Z,54.70
2018-11-23T05:52:38.371Z,53.90
2018-11-23T05:55:04.651Z,53.80
2018-11-23T05:57:30.899Z,53.40
2018-11-23T05:59:57.158Z,54.10
2018-11-23T06:02:24.155Z,54.70
2018-11-23T06:04:50.415Z,54.60
2018-11-23T06:07:16.717Z,54.70
2018-11-23T06:09:42.975Z,55.30
2018-11-23T06:12:10.356Z,55.70
2018-11-23T06:14:36.591Z,55.60
2018-11-23T06:17:02.947Z,55.80
2018-11-23T06:19:29.201Z,55.60
2018-11-23T06:21:58.422Z,55.70
2018-11-23T06:24:32.000Z,55.50
2018-11-23T06:26:52.364Z,55.50
2018-11-23T06:29:18.646Z,54.90
2018-11-23T06:31:44.880Z,55.20
2018-11-23T06:34:12.133Z,55.70
2018-11-23T06:36:38.347Z,55.60
2018-11-23T06:39:04.615Z,55.70
2018-11-23T06:41:31.659Z,55.70
2018-11-23T06:43:57.920Z,55.80
2018-11-23T06:46:24.159Z,55.30
2018-11-23T06:48:50.435Z,54.90
2018-11-23T06:51:16.666Z,55.30
2018-11-23T06:53:42.923Z,56.00
2018-11-23T06:56:09.500Z,55.80
2018-11-23T06:58:36.486Z,56.50
2018-11-23T07:01:02.896Z,56.30
2018-11-23T07:03:29.261Z,57.00
2018-11-23T07:05:55.520Z,57.40
2018-11-23T07:08:22.175Z,57.30
2018-11-23T07:10:49.162Z,56.40
2018-11-23T07:13:16.188Z,56.00
2018-11-23T07:15:42.431Z,55.90
2018-11-23T07:18:08.663Z,56.20
2018-11-23T07:20:34.917Z,55.70
2018-11-23T07:23:01.215Z,56.00
2018-11-23T07:25:27.466Z,56.20
2018-11-23T07:27:53.739Z,57.10
2018-11-23T07:30:20.737Z,56.00
2018-11-23T07:32:47.127Z,55.90
2018-11-23T07:35:14.138Z,56.70
2018-11-23T07:37:40.384Z,56.60
2018-11-23T07:43:13.543Z,56.20
2018-11-23T07:45:40.553Z,57.90
2018-11-23T07:48:07.533Z,57.50
2018-11-23T07:50:33.839Z,57.50
2018-11-23T07:53:00.109Z,57.70
2018-11-23T07:55:26.372Z,57.90
2018-11-23T07:57:53.339Z,56.80
2018-11-23T08:00:19.644Z,56.80
2018-11-23T08:02:46.618Z,57.60
2018-11-23T08:05:12.894Z,57.80
2018-11-23T08:07:39.158Z,57.50
2018-11-23T08:10:06.038Z,57.60
2018-11-23T08:12:32.378Z,57.50
2018-11-23T08:14:58.631Z,58.00
2018-11-23T08:17:24.900Z,58.10
2018-11-23T08:19:51.121Z,58.10
2018-11-23T08:22:17.356Z,58.30
2018-11-23T08:24:43.580Z,58.80
2018-11-23T08:27:09.891Z,58.00
2018-11-23T08:29:36.983Z,57.80
2018-11-23T08:32:03.290Z,57.70
2018-11-23T08:34:29.575Z,57.50
2018-11-23T08:36:55.842Z,57.50
2018-11-23T08:39:22.097Z,57.70
2018-11-23T08:41:48.342Z,57.40
2018-11-23T08:44:14.573Z,57.50
2018-11-23T08:46:41.559Z,57.70
2018-11-23T08:49:07.816Z,57.70
2018-11-23T08:51:34.047Z,57.70
2018-11-23T08:54:00.326Z,57.30
2018-11-23T08:56:27.368Z,58.00
2018-11-23T08:58:54.423Z,57.00
2018-11-23T09:01:21.419Z,57.70
2018-11-23T09:03:47.658Z,57.70
2018-11-23T09:06:13.903Z,57.30
2018-11-23T09:08:40.140Z,57.30
2018-11-23T09:11:07.210Z,56.90
2018-11-23T09:13:34.213Z,57.20
2018-11-23T09:16:00.511Z,57.00
2018-11-23T09:18:27.590Z,55.10
2018-11-23T09:20:53.813Z,55.00
2018-11-23T09:23:20.075Z,55.70
2018-11-23T09:25:46.413Z,56.10
2018-11-23T09:28:13.423Z,55.40
2018-11-23T09:30:39.830Z,55.30
2018-11-23T09:33:06.150Z,55.20
2018-11-23T09:35:32.486Z,55.60
2018-11-23T09:37:58.802Z,54.50
2018-11-23T09:40:25.065Z,55.40
2018-11-23T09:42:51.353Z,54.00
2018-11-23T09:45:17.609Z,55.30
2018-11-23T09:47:43.895Z,54.20
2018-11-23T09:50:10.917Z,54.40
2018-11-23T09:52:37.198Z,54.40
2018-11-23T09:55:03.466Z,54.40
2018-11-23T09:57:30.467Z,54.30
2018-11-23T09:59:56.780Z,54.30
2018-11-23T10:02:23.028Z,53.00
2018-11-23T10:04:49.303Z,53.70
2018-11-23T10:07:15.561Z,54.20
2018-11-23T10:09:42.548Z,54.90
2018-11-23T10:12:08.813Z,54.90
2018-11-23T10:14:35.063Z,54.90
2018-11-23T10:17:01.339Z,54.60
2018-11-23T10:19:27.583Z,54.90
2018-11-23T10:21:53.817Z,55.10
2018-11-23T10:24:20.046Z,55.00
2018-11-23T10:26:46.291Z,53.50
2018-11-23T10:29:12.596Z,52.60
2018-11-23T10:31:38.843Z,52.80
2018-11-23T10:34:05.785Z,52.50
2018-11-23T10:36:32.032Z,52.40
2018-11-23T10:38:58.985Z,52.20
2018-11-23T10:41:25.231Z,52.20
2018-11-23T10:43:51.468Z,52.40
2018-11-23T10:46:17.738Z,52.10
2018-11-23T10:48:44.775Z,51.30
2018-11-23T10:51:11.044Z,51.30
2018-11-23T10:53:37.322Z,51.50
2018-11-23T10:56:03.560Z,50.50
2018-11-23T10:58:30.536Z,49.70
2018-11-23T11:00:56.818Z,49.50
2018-11-23T11:03:23.100Z,49.50
2018-11-23T11:05:49.392Z,49.50
2018-11-23T11:08:15.607Z,49.20
2018-11-23T11:10:41.892Z,49.60
2018-11-23T11:13:08.166Z,48.90
2018-11-23T11:15:34.474Z,48.30
2018-11-23T11:18:00.755Z,47.80
2018-11-23T11:20:27.849Z,47.20
2018-11-23T11:22:54.081Z,47.10
2018-11-23T11:25:20.343Z,47.30
2018-11-23T11:27:47.354Z,45.80
2018-11-23T11:30:13.837Z,45.80
2018-11-23T11:32:40.084Z,45.50
2018-11-23T11:35:06.420Z,45.70
2018-11-23T11:37:32.676Z,45.80
2018-11-23T11:39:58.928Z,45.80
2018-11-23T11:42:25.960Z,45.70
2018-11-23T11:44:52.193Z,45.60
2018-11-23T11:47:18.449Z,45.70
2018-11-23T11:49:45.469Z,45.90
2018-11-23T11:52:11.681Z,45.80
2018-11-23T11:54:37.899Z,45.40
2018-11-23T11:57:04.172Z,45.40
2018-11-23T11:59:31.154Z,44.70
2018-11-23T12:01:57.399Z,44.70
2018-11-23T12:04:23.707Z,44.60
2018-11-23T12:06:49.963Z,45.00
2018-11-23T12:09:16.212Z,44.40
2018-11-23T12:11:43.231Z,44.50
2018-11-23T12:14:09.467Z,44.40
2018-11-23T12:16:35.704Z,44.60
2018-11-23T12:19:02.008Z,44.30
2018-11-23T12:21:28.246Z,44.00
2018-11-23T12:23:54.492Z,43.70
2018-11-23T12:26:20.743Z,43.80
2018-11-23T12:28:47.772Z,43.40
2018-11-23T12:31:15.047Z,43.40
2018-11-23T12:33:41.993Z,43.30
2018-11-23T12:36:09.181Z,43.40
2018-11-23T12:38:35.754Z,43.40
2018-11-23T12:41:02.018Z,43.20
2018-11-23T12:43:28.344Z,43.50
2018-11-23T12:45:54.589Z,44.30
2018-11-23T12:48:20.858Z,43.50
2018-11-23T12:50:47.106Z,43.60
2018-11-23T12:53:14.115Z,43.90
2018-11-23T12:55:40.339Z,43.90
2018-11-23T12:58:06.593Z,43.80
2018-11-23T13:00:32.919Z,43.70
2018-11-23T13:02:59.151Z,43.30
2018-11-23T13:05:25.381Z,43.30
2018-11-23T13:07:51.923Z,43.40
2018-11-23T13:10:18.168Z,43.30
2018-11-23T13:12:50.674Z,43.30
2018-11-23T13:15:11.422Z,43.20
2018-11-23T13:17:37.912Z,43.80
2018-11-23T13:20:04.202Z,44.50
2018-11-23T13:22:31.159Z,44.30
2018-11-23T13:24:57.407Z,44.30
2018-11-23T13:27:23.996Z,44.70
2018-11-23T13:29:50.949Z,45.30
2018-11-23T13:32:17.248Z,45.30
2018-11-23T13:34:43.515Z,45.20
2018-11-23T13:37:09.760Z,45.10
2018-11-23T13:39:36.007Z,45.10
2018-11-23T13:42:02.283Z,46.00
2018-11-23T13:44:29.267Z,45.10
2018-11-23T13:46:55.486Z,45.10
2018-11-23T13:49:21.753Z,45.10
2018-11-23T13:51:48.011Z,46.00
2018-11-23T13:54:15.031Z,46.20
2018-11-23T13:56:41.360Z,46.10
2018-11-23T13:59:08.400Z,46.60
2018-11-23T14:01:34.688Z,46.70
2018-11-23T14:04:01.340Z,46.90
2018-11-23T14:06:28.375Z,47.20
2018-11-23T14:08:54.650Z,47.10
2018-11-23T14:11:21.692Z,48.80
2018-11-23T14:13:47.941Z,48.80
2018-11-23T14:16:14.983Z,47.70
2018-11-23T14:18:41.557Z,46.90
2018-11-23T14:21:07.831Z,48.10
2018-11-23T14:23:34.864Z,47.30
2018-11-23T14:26:01.864Z,46.80
2018-11-23T14:28:28.111Z,46.70
2018-11-23T14:30:54.592Z,48.50
2018-11-23T14:33:20.870Z,48.80
2018-11-23T14:35:47.129Z,48.60
2018-11-23T14:38:13.371Z,48.90
2018-11-23T14:40:39.635Z,48.90
2018-11-23T14:43:06.621Z,49.60
2018-11-23T14:45:32.909Z,49.50
2018-11-23T14:47:59.219Z,49.50
2018-11-23T14:50:26.231Z,49.90
2018-11-23T14:52:52.507Z,49.90
2018-11-23T14:55:19.508Z,50.30
2018-11-23T14:57:45.759Z,50.20
2018-11-23T15:00:12.033Z,50.30
2018-11-23T15:02:38.294Z,50.60
2018-11-23T15:05:04.971Z,50.90
2018-11-23T15:07:31.936Z,51.70
2018-11-23T15:09:58.211Z,51.00
2018-11-23T15:12:24.777Z,51.50
2018-11-23T15:14:51.720Z,52.00
2018-11-23T15:17:18.726Z,51.80
2018-11-23T15:19:45.925Z,52.00
2018-11-23T15:22:12.869Z,52.20
2018-11-23T15:24:39.871Z,52.20
2018-11-23T15:27:06.363Z,52.20
2018-11-23T15:29:32.629Z,52.30
2018-11-23T15:32:05.079Z,52.40
2018-11-23T15:34:38.204Z,52.70
2018-11-23T15:37:10.607Z,52.60
2018-11-23T15:39:43.611Z,52.30
2018-11-23T15:42:15.974Z,52.20
2018-11-23T15:44:48.287Z,52.70
2018-11-23T15:47:21.324Z,52.70
2018-11-23T15:49:53.745Z,52.60
2018-11-23T15:52:26.090Z,52.40
2018-11-23T15:54:59.210Z,52.90
2018-11-23T15:57:31.739Z,52.90
2018-11-23T16:00:05.027Z,53.50
2018-11-23T16:02:38.134Z,53.40
2018-11-23T16:05:10.566Z,53.40
2018-11-23T16:07:42.948Z,53.70
2018-11-23T16:10:09.210Z,54.00
2018-11-23T16:12:36.155Z,54.50
2018-11-23T16:15:03.166Z,54.50
2018-11-23T16:17:29.499Z,54.40
2018-11-23T16:19:55.707Z,54.60
2018-11-23T16:22:22.072Z,54.50
2018-11-23T16:27:42.414Z,54.60
2018-11-23T16:30:22.016Z,54.40
2018-11-23T16:32:48.236Z,54.30
2018-11-23T16:35:14.843Z,54.50
2018-11-23T16:37:41.298Z,54.90
2018-11-23T16:40:07.524Z,54.80
2018-11-23T16:42:33.733Z,55.00
2018-11-23T16:44:59.942Z,55.30
2018-11-23T16:47:26.289Z,55.60
2018-11-23T16:49:52.602Z,55.60
2018-11-23T16:52:18.887Z,55.40
2018-11-23T16:54:45.420Z,55.00
2018-11-23T16:57:11.666Z,55.60
2018-11-23T16:59:38.658Z,55.50
2018-11-23T17:02:04.906Z,55.60
2018-11-23T17:04:31.186Z,55.60
2018-11-23T17:06:58.127Z,55.60
2018-11-23T17:09:24.406Z,55.60
2018-11-23T17:11:50.588Z,55.60
2018-11-23T17:14:16.828Z,55.70
2018-11-23T17:16:43.049Z,55.60
2018-11-23T17:19:09.309Z,55.60
2018-11-23T17:21:36.011Z,55.60
2018-11-23T17:24:03.390Z,56.00
2018-11-23T17:26:29.585Z,55.30
2018-11-23T17:28:55.973Z,54.90
2018-11-23T17:31:23.236Z,56.00
2018-11-23T17:33:49.430Z,55.20
2018-11-23T17:36:15.715Z,55.60
2018-11-23T17:38:47.339Z,55.60
2018-11-23T17:41:08.548Z,55.60
2018-11-23T17:43:34.772Z,55.70
2018-11-23T17:46:01.076Z,55.70
2018-11-23T17:48:28.402Z,55.30
2018-11-23T17:50:53.509Z,55.30
2018-11-23T17:53:19.875Z,55.70
2018-11-23T17:55:46.880Z,55.70
2018-11-23T17:58:13.068Z,55.70
2018-11-23T18:00:40.644Z,55.40
2018-11-23T18:03:06.904Z,55.70
2018-11-23T18:05:33.196Z,55.50
2018-11-23T18:08:00.176Z,55.60
2018-11-23T18:10:26.399Z,55.50
2018-11-23T18:12:52.574Z,55.60
2018-11-23T18:15:18.840Z,55.60
2018-11-23T18:17:45.388Z,55.60
2018-11-23T18:20:11.659Z,55.50
2018-11-23T18:22:37.863Z,55.40
2018-11-23T18:25:05.227Z,55.40
2018-11-23T18:27:31.525Z,55.40
2018-11-23T18:29:57.958Z,55.60
2018-11-23T18:32:24.179Z,55.80
2018-11-23T18:34:50.387Z,55.50
2018-11-23T18:37:16.657Z,55.60
2018-11-23T18:39:42.845Z,55.60
2018-11-23T18:42:09.800Z,55.70
2018-11-23T18:44:36.064Z,55.70
2018-11-23T18:47:02.259Z,55.60
2018-11-23T18:49:28.498Z,55.60
2018-11-23T18:51:54.728Z,55.60
2018-11-23T18:54:21.025Z,55.60
2018-11-23T18:56:47.262Z,55.70
2018-11-23T18:59:14.228Z,55.60
2018-11-23T19:01:40.490Z,55.50
2018-11-23T19:04:06.663Z,55.60
2018-11-23T19:06:32.919Z,55.60
2018-11-23T19:08:59.126Z,55.60
2018-11-23T19:11:25.884Z,55.70
2018-11-23T19:13:52.309Z,55.60
2018-11-23T19:16:18.643Z,55.60
2018-11-23T19:18:44.858Z,55.90
2018-11-23T19:21:11.179Z,56.60
2018-11-23T19:23:37.394Z,56.50
2018-11-23T19:26:04.371Z,56.90
2018-11-23T19:28:30.710Z,56.70
2018-11-23T19:30:56.927Z,56.90
2018-11-23T19:33:23.120Z,57.10
2018-11-23T19:35:50.085Z,57.10
2018-11-23T19:38:16.267Z,57.10
2018-11-23T19:40:42.479Z,57.30
2018-11-23T19:43:08.703Z,57.20
2018-11-23T19:45:34.949Z,57.20
2018-11-23T19:48:01.179Z,57.10
2018-11-23T19:50:27.371Z,57.10
2018-11-23T19:52:53.587Z,57.10
2018-11-23T19:55:19.849Z,57.00
2018-11-23T19:57:46.124Z,57.10
2018-11-23T20:00:12.366Z,57.30
2018-11-23T20:02:38.626Z,57.00
2018-11-23T20:05:04.933Z,57.40
2018-11-23T20:07:31.137Z,57.50
2018-11-23T20:09:57.333Z,57.50
2018-11-23T20:12:23.570Z,57.80
2018-11-23T20:14:50.540Z,58.00
2018-11-23T20:17:16.775Z,58.00
2018-11-23T20:19:43.163Z,58.10
2018-11-23T20:22:09.532Z,58.00
2018-11-23T20:24:35.811Z,57.90
2018-11-23T20:27:02.794Z,58.00
2018-11-23T20:29:28.978Z,57.90
2018-11-23T20:31:55.215Z,57.70
2018-11-23T20:34:21.651Z,57.90
2018-11-23T20:36:48.835Z,58.00
2018-11-23T20:39:15.125Z,58.00
2018-11-23T20:41:42.188Z,58.00
2018-11-23T20:44:08.502Z,58.00
2018-11-23T20:46:35.556Z,58.00
2018-11-23T20:49:02.536Z,58.20
2018-11-23T20:51:28.898Z,58.10
2018-11-23T20:53:55.206Z,58.00
2018-11-23T20:56:21.423Z,57.90
2018-11-23T20:58:47.648Z,57.80
2018-11-23T21:01:13.886Z,58.00
2018-11-23T21:03:40.138Z,57.90
2018-11-23T21:06:06.884Z,58.10
2018-11-23T21:08:33.090Z,58.10
2018-11-23T21:10:59.320Z,58.30
2018-11-23T21:13:25.667Z,58.00
2018-11-23T21:15:51.855Z,58.00
2018-11-23T21:18:18.999Z,58.00
2018-11-23T21:20:45.343Z,57.80
2018-11-23T21:23:11.578Z,57.80
2018-11-23T21:25:37.830Z,57.90
2018-11-23T21:28:04.060Z,57.90
2018-11-23T21:30:30.320Z,57.70
2018-11-23T21:32:56.548Z,58.00
2018-11-23T21:35:23.517Z,57.60
2018-11-23T21:37:49.732Z,57.60
2018-11-23T21:40:15.996Z,57.20
2018-11-23T21:42:42.259Z,57.30
2018-11-23T21:45:08.566Z,57.30
2018-11-23T21:47:34.793Z,57.10
2018-11-23T21:50:01.088Z,57.10
2018-11-23T21:52:27.599Z,57.10
2018-11-23T21:54:53.851Z,57.10
2018-11-23T21:57:20.050Z,57.20
2018-11-23T21:59:47.576Z,57.40
2018-11-23T22:02:13.895Z,57.30
2018-11-23T22:04:40.165Z,56.90
2018-11-23T22:07:06.403Z,57.00
2018-11-23T22:09:32.624Z,57.10
2018-11-23T22:11:59.586Z,57.50
2018-11-23T22:14:25.770Z,57.40
2018-11-23T22:16:52.435Z,57.20
2018-11-23T22:19:19.366Z,57.40
2018-11-23T22:21:46.374Z,57.50
2018-11-23T22:24:12.581Z,57.50
2018-11-23T22:26:38.855Z,57.20
2018-11-23T22:29:05.169Z,57.00
2018-11-23T22:31:31.519Z,56.90
2018-11-23T22:33:58.334Z,57.10
2018-11-23T22:36:24.568Z,57.20
2018-11-23T22:38:50.743Z,57.40
2018-11-23T22:41:16.968Z,57.40
2018-11-23T22:43:43.188Z,57.30
2018-11-23T22:46:09.431Z,57.30
2018-11-23T22:48:35.624Z,57.50
2018-11-23T22:51:02.606Z,57.10
2018-11-23T22:53:28.808Z,56.90
2018-11-23T22:55:55.006Z,57.00
2018-11-23T22:58:21.198Z,57.00
2018-11-23T23:00:47.459Z,56.80
2018-11-23T23:03:13.672Z,56.80
2018-11-23T23:05:42.666Z,57.20
2018-11-23T23:08:06.124Z,56.90
2018-11-23T23:10:32.326Z,56.90
2018-11-23T23:12:58.520Z,57.20
2018-11-23T23:15:24.739Z,57.00
2018-11-23T23:17:50.966Z,56.80
2018-11-23T23:20:17.403Z,57.10
2018-11-23T23:22:44.368Z,57.00
2018-11-23T23:25:10.959Z,57.00
2018-11-23T23:27:37.154Z,56.90
2018-11-23T23:30:03.394Z,57.00
2018-11-23T23:32:29.650Z,57.30
2018-11-23T23:34:56.581Z,57.60
2018-11-23T23:37:22.830Z,57.50
2018-11-23T23:39:48.990Z,57.80
2018-11-23T23:42:16.014Z,57.70
2018-11-23T23:44:42.615Z,57.70
2018-11-23T23:47:08.785Z,57.60
2018-11-23T23:49:35.291Z,57.40
2018-11-23T23:52:01.547Z,57.40
2018-11-23T23:54:27.747Z,57.50
2018-11-23T23:56:53.921Z,57.70
2018-11-23T23:59:20.105Z,57.20
